createdAt,value
2017-12-04T00:02:26.718Z,101301.84
2017-12-04T00:04:55.003Z,101307.73
2017-12-04T00:07:23.388Z,101299.22
2017-12-04T00:09:51.659Z,101302.33
2017-12-04T00:12:19.969Z,101304.13
2017-12-04T00:14:48.428Z,101299.58
2017-12-04T00:17:16.733Z,101302.85
2017-12-04T00:19:45.159Z,101303.34
2017-12-04T00:22:13.505Z,101302.52
2017-12-04T00:24:41.791Z,101307.59
2017-12-04T00:27:10.221Z,101299.03
2017-12-04T00:29:38.498Z,101297.19
2017-12-04T00:32:06.807Z,101307.38
2017-12-04T00:34:35.131Z,101302.42
2017-12-04T00:37:03.463Z,101300.21
2017-12-04T00:39:31.760Z,101297.84
2017-12-04T00:42:00.047Z,101300.29
2017-12-04T00:44:28.364Z,101305.61
2017-12-04T00:46:56.663Z,101305.55
2017-12-04T00:49:24.920Z,101314.03
2017-12-04T00:51:53.223Z,101313.32
2017-12-04T00:54:21.541Z,101304.25
2017-12-04T00:56:49.939Z,101314.81
2017-12-04T00:59:18.307Z,101309.99
2017-12-04T01:01:46.616Z,101311.13
2017-12-04T01:04:14.875Z,101316.28
2017-12-04T01:06:43.191Z,101312.53
2017-12-04T01:09:11.462Z,101316.53
2017-12-04T01:11:40.030Z,101322.83
2017-12-04T01:14:08.291Z,101322.20
2017-12-04T01:16:37.206Z,101320.31
2017-12-04T01:19:05.481Z,101322.12
2017-12-04T01:21:33.787Z,101320.64
2017-12-04T01:24:02.097Z,101324.23
2017-12-04T01:26:30.475Z,101321.87
2017-12-04T01:28:58.774Z,101320.75
2017-12-04T01:31:27.066Z,101316.41
2017-12-04T01:33:55.351Z,101326.95
2017-12-04T01:36:23.655Z,101323.30
2017-12-04T01:38:51.926Z,101313.91
2017-12-04T01:41:20.253Z,101310.88
2017-12-04T01:43:48.551Z,101308.45
2017-12-04T01:46:16.850Z,101305.89
2017-12-04T01:48:45.111Z,101303.30
2017-12-04T01:51:13.455Z,101308.92
2017-12-04T01:53:41.744Z,101306.57
2017-12-04T01:56:10.100Z,101311.15
2017-12-04T01:58:38.418Z,101306.65
2017-12-04T02:01:06.729Z,101308.85
2017-12-04T02:03:35.015Z,101308.45
2017-12-04T02:06:03.351Z,101297.33
2017-12-04T02:08:31.693Z,101293.66
2017-12-04T02:11:00.016Z,101293.36
2017-12-04T02:13:28.353Z,101288.02
2017-12-04T02:15:56.831Z,101285.91
2017-12-04T02:18:25.156Z,101287.63
2017-12-04T02:20:53.476Z,101282.18
2017-12-04T02:23:21.956Z,101283.73
2017-12-04T02:25:50.252Z,101289.59
2017-12-04T02:28:18.531Z,101279.65
2017-12-04T02:30:46.833Z,101283.89
2017-12-04T02:33:16.176Z,101279.73
2017-12-04T02:35:44.490Z,101275.63
2017-12-04T02:38:13.121Z,101274.17
2017-12-04T02:40:41.423Z,101272.86
2017-12-04T02:43:09.692Z,101269.67
2017-12-04T02:45:38.003Z,101269.59
2017-12-04T02:48:06.300Z,101259.75
2017-12-04T02:50:34.605Z,101266.12
2017-12-04T02:53:02.913Z,101253.33
2017-12-04T02:55:31.400Z,101247.63
2017-12-04T02:57:59.863Z,101253.19
2017-12-04T03:00:28.228Z,101254.33
2017-12-04T03:02:56.522Z,101260.34
2017-12-04T03:05:24.830Z,101253.41
2017-12-04T03:07:53.123Z,101267.08
2017-12-04T03:10:21.404Z,101263.15
2017-12-04T03:12:49.695Z,101265.92
2017-12-04T03:15:17.987Z,101259.48
2017-12-04T03:17:46.695Z,101253.97
2017-12-04T03:20:15.029Z,101251.59
2017-12-04T03:22:43.375Z,101242.41
2017-12-04T03:25:11.799Z,101250.52
2017-12-04T03:27:40.182Z,101253.53
2017-12-04T03:30:08.525Z,101248.14
2017-12-04T03:32:36.804Z,101254.56
2017-12-04T03:35:05.156Z,101258.11
2017-12-04T03:37:33.468Z,101252.62
2017-12-04T03:40:01.717Z,101254.53
2017-12-04T03:42:30.099Z,101251.16
2017-12-04T03:44:58.340Z,101251.33
2017-12-04T03:47:26.836Z,101244.63
2017-12-04T03:49:55.119Z,101247.48
2017-12-04T03:52:23.499Z,101245.60
2017-12-04T03:54:51.803Z,101232.39
2017-12-04T03:57:20.249Z,101234.59
2017-12-04T03:59:48.507Z,101235.58
2017-12-04T04:02:17.027Z,101210.40
2017-12-04T04:04:45.294Z,101189.27
2017-12-04T04:07:13.664Z,101231.50
2017-12-04T04:09:41.969Z,101233.86
2017-12-04T04:12:10.295Z,101237.54
2017-12-04T04:14:38.568Z,101242.77
2017-12-04T04:17:06.963Z,101244.63
2017-12-04T04:19:35.260Z,101239.02
2017-12-04T04:22:03.622Z,101241.02
2017-12-04T04:24:31.914Z,101232.48
2017-12-04T04:27:00.283Z,101230.80
2017-12-04T04:29:28.715Z,101241.59
2017-12-04T04:31:57.024Z,101244.39
2017-12-04T04:34:25.356Z,101230.09
2017-12-04T04:36:53.783Z,101234.03
2017-12-04T04:39:22.042Z,101232.23
2017-12-04T04:41:50.342Z,101234.91
2017-12-04T04:44:18.618Z,101238.91
2017-12-04T04:46:46.932Z,101243.73
2017-12-04T04:49:15.322Z,101237.05
2017-12-04T04:51:43.623Z,101248.79
2017-12-04T04:54:11.934Z,101250.13
2017-12-04T04:56:40.232Z,101243.75
2017-12-04T04:59:08.545Z,101238.03
2017-12-04T05:01:36.839Z,101235.42
2017-12-04T05:04:05.215Z,101247.26
2017-12-04T05:06:33.475Z,101246.36
2017-12-04T05:09:01.778Z,101247.53
2017-12-04T05:11:30.072Z,101248.09
2017-12-04T05:13:58.356Z,101250.28
2017-12-04T05:16:26.819Z,101257.30
2017-12-04T05:18:55.106Z,101255.94
2017-12-04T05:21:23.412Z,101258.23
2017-12-04T05:23:51.725Z,101262.14
2017-12-04T05:26:20.084Z,101266.83
2017-12-04T05:28:48.370Z,101267.08
2017-12-04T05:31:16.708Z,101266.97
2017-12-04T05:33:45.137Z,101273.59
2017-12-04T05:36:13.438Z,101270.81
2017-12-04T05:38:41.723Z,101269.34
2017-12-04T05:41:10.032Z,101268.86
2017-12-04T05:43:38.297Z,101266.17
2017-12-04T05:46:06.633Z,101253.73
2017-12-04T05:48:34.899Z,101259.12
2017-12-04T05:51:03.279Z,101263.94
2017-12-04T05:53:31.574Z,101264.83
2017-12-04T05:55:59.885Z,101273.98
2017-12-04T05:58:28.308Z,101277.25
2017-12-04T06:00:56.595Z,101268.77
2017-12-04T06:03:25.895Z,101265.06
2017-12-04T06:05:54.231Z,101259.75
2017-12-04T06:08:22.544Z,101260.08
2017-12-04T06:10:50.959Z,101275.94
2017-12-04T06:13:19.652Z,101279.27
2017-12-04T06:15:47.964Z,101284.30
2017-12-04T06:18:16.248Z,101291.31
2017-12-04T06:20:44.578Z,101295.08
2017-12-04T06:23:12.946Z,101292.05
2017-12-04T06:25:41.235Z,101291.89
2017-12-04T06:28:09.496Z,101287.94
2017-12-04T06:30:37.775Z,101293.20
2017-12-04T06:33:06.211Z,101297.38
2017-12-04T06:35:34.540Z,101299.83
2017-12-04T06:38:02.815Z,101294.58
2017-12-04T06:40:31.106Z,101301.77
2017-12-04T06:42:59.391Z,101310.52
2017-12-04T06:45:27.682Z,101308.23
2017-12-04T06:47:56.133Z,101305.67
2017-12-04T06:50:24.443Z,101308.45
2017-12-04T06:52:52.772Z,101312.70
2017-12-04T06:55:21.089Z,101318.39
2017-12-04T06:57:49.392Z,101322.48
2017-12-04T07:00:17.691Z,101328.19
2017-12-04T07:02:45.979Z,101335.54
2017-12-04T07:05:14.303Z,101331.87
2017-12-04T07:07:42.611Z,101339.63
2017-12-04T07:10:10.919Z,101338.49
2017-12-04T07:12:39.215Z,101344.67
2017-12-04T07:15:07.563Z,101347.81
2017-12-04T07:17:35.923Z,101368.05
2017-12-04T07:20:04.264Z,101373.23
2017-12-04T07:22:32.607Z,101369.94
2017-12-04T07:25:00.985Z,101370.34
2017-12-04T07:27:29.332Z,101367.16
2017-12-04T07:29:57.620Z,101369.36
2017-12-04T07:32:26.099Z,101368.06
2017-12-04T07:34:54.666Z,101371.30
2017-12-04T07:37:23.471Z,101375.15
2017-12-04T07:39:52.399Z,101374.47
2017-12-04T07:42:21.256Z,101378.98
2017-12-04T07:44:50.800Z,101380.53
2017-12-04T07:47:19.391Z,101382.90
2017-12-04T07:49:48.124Z,101387.16
2017-12-04T07:52:16.488Z,101387.97
2017-12-04T07:54:45.105Z,101394.92
2017-12-04T07:57:14.123Z,101400.53
2017-12-04T07:59:42.438Z,101396.77
2017-12-04T08:02:10.856Z,101405.11
2017-12-04T08:04:39.414Z,101405.94
2017-12-04T08:07:07.919Z,101401.60
2017-12-04T08:09:36.375Z,101403.81
2017-12-04T08:12:04.731Z,101411.33
2017-12-04T08:14:33.119Z,101411.74
2017-12-04T08:17:01.723Z,101411.49
2017-12-04T08:19:30.015Z,101417.30
2017-12-04T08:21:58.370Z,101412.56
2017-12-04T08:24:26.811Z,101412.56
2017-12-04T08:26:55.105Z,101414.20
2017-12-04T08:29:23.623Z,101405.29
2017-12-04T08:31:52.096Z,101419.97
2017-12-04T08:34:20.387Z,101418.67
2017-12-04T08:36:48.843Z,101412.86
2017-12-04T08:39:17.090Z,101410.24
2017-12-04T08:41:45.404Z,101406.98
2017-12-04T08:44:13.684Z,101420.55
2017-12-04T08:46:42.007Z,101423.75
2017-12-04T08:49:10.395Z,101432.34
2017-12-04T08:51:38.682Z,101434.35
2017-12-04T08:54:07.020Z,101437.79
2017-12-04T08:56:35.471Z,101444.58
2017-12-04T08:59:03.835Z,101445.64
2017-12-04T09:01:32.143Z,101449.88
2017-12-04T09:04:00.406Z,101447.09
2017-12-04T09:06:28.712Z,101445.70
2017-12-04T09:08:56.999Z,101446.52
2017-12-04T09:11:25.299Z,101451.52
2017-12-04T09:13:53.611Z,101456.50
2017-12-04T09:16:22.090Z,101453.31
2017-12-04T09:18:50.470Z,101463.05
2017-12-04T09:21:18.772Z,101462.06
2017-12-04T09:23:47.076Z,101466.08
2017-12-04T09:26:15.419Z,101464.44
2017-12-04T09:28:43.710Z,101465.66
2017-12-04T09:31:12.007Z,101472.70
2017-12-04T09:33:40.286Z,101463.58
2017-12-04T09:36:08.607Z,101461.46
2017-12-04T09:38:36.904Z,101468.81
2017-12-04T09:41:05.288Z,101471.92
2017-12-04T09:43:33.575Z,101471.27
2017-12-04T09:46:01.867Z,101456.89
2017-12-04T09:48:30.131Z,101455.91
2017-12-04T09:50:58.426Z,101457.55
2017-12-04T09:53:26.820Z,101456.63
2017-12-04T09:55:55.147Z,101458.17
2017-12-04T09:58:23.424Z,101454.49
2017-12-04T10:00:51.727Z,101451.95
2017-12-04T10:03:20.044Z,101454.49
2017-12-04T10:05:48.495Z,101449.83
2017-12-04T10:08:16.767Z,101451.77
2017-12-04T10:10:45.088Z,101452.39
2017-12-04T10:13:13.354Z,101461.50
2017-12-04T10:15:41.744Z,101460.11
2017-12-04T10:18:10.084Z,101454.19
2017-12-04T10:20:38.387Z,101464.42
2017-12-04T10:23:06.696Z,101461.77
2017-12-04T10:25:35.011Z,101476.12
2017-12-04T10:28:03.527Z,101467.37
2017-12-04T10:30:32.019Z,101487.09
2017-12-04T10:33:00.387Z,101509.52
2017-12-04T10:35:28.767Z,101515.20
2017-12-04T10:37:57.056Z,101509.62
2017-12-04T10:40:25.396Z,101508.73
2017-12-04T10:42:53.768Z,101498.58
2017-12-04T10:45:22.083Z,101499.16
2017-12-04T10:47:50.463Z,101495.06
2017-12-04T10:50:18.966Z,101499.16
2017-12-04T10:52:47.287Z,101497.52
2017-12-04T10:55:15.628Z,101498.58
2017-12-04T10:57:43.946Z,101499.45
2017-12-04T11:00:12.291Z,101506.11
2017-12-04T11:02:40.586Z,101510.04
2017-12-04T11:05:09.003Z,101512.91
2017-12-04T11:07:37.311Z,101524.61
2017-12-04T11:10:05.623Z,101521.16
2017-12-04T11:12:33.978Z,101521.91
2017-12-04T11:15:02.275Z,101518.20
2017-12-04T11:17:30.793Z,101522.56
2017-12-04T11:19:59.115Z,101517.73
2017-12-04T11:22:27.542Z,101517.23
2017-12-04T11:24:55.807Z,101526.73
2017-12-04T11:27:24.135Z,101536.64
2017-12-04T11:29:52.548Z,101533.61
2017-12-04T11:32:20.961Z,101533.86
2017-12-04T11:34:49.303Z,101536.88
2017-12-04T11:37:17.653Z,101545.23
2017-12-04T11:39:46.083Z,101544.49
2017-12-04T11:42:14.442Z,101553.36
2017-12-04T11:44:42.742Z,101558.10
2017-12-04T11:47:11.116Z,101550.66
2017-12-04T11:49:39.591Z,101552.54
2017-12-04T11:52:08.096Z,101553.82
2017-12-04T11:54:36.388Z,101548.99
2017-12-04T11:57:04.712Z,101555.22
2017-12-04T11:59:33.035Z,101549.59
2017-12-04T12:02:01.563Z,101559.23
2017-12-04T12:04:29.843Z,101564.65
2017-12-04T12:06:58.196Z,101567.51
2017-12-04T12:09:26.465Z,101567.09
2017-12-04T12:11:54.911Z,101571.34
2017-12-04T12:14:23.355Z,101571.17
2017-12-04T12:16:51.699Z,101571.34
2017-12-04T12:19:20.018Z,101581.16
2017-12-04T12:21:48.427Z,101573.64
2017-12-04T12:24:16.715Z,101574.84
2017-12-04T12:26:45.035Z,101572.64
2017-12-04T12:29:13.313Z,101575.56
2017-12-04T12:31:41.745Z,101577.86
2017-12-04T12:34:10.176Z,101579.95
2017-12-04T12:36:38.467Z,101583.06
2017-12-04T12:39:06.947Z,101589.56
2017-12-04T12:41:35.299Z,101591.66
2017-12-04T12:44:03.590Z,101592.48
2017-12-04T12:46:31.887Z,101597.62
2017-12-04T12:49:00.191Z,101602.38
2017-12-04T12:51:28.554Z,101598.02
2017-12-04T12:53:56.870Z,101597.09
2017-12-04T12:56:25.212Z,101606.53
2017-12-04T12:58:53.531Z,101600.47
2017-12-04T13:01:21.831Z,101603.99
2017-12-04T13:03:50.140Z,101609.06
2017-12-04T13:06:18.423Z,101619.72
2017-12-04T13:08:46.705Z,101609.50
2017-12-04T13:11:15.013Z,101602.78
2017-12-04T13:13:43.336Z,101613.70
2017-12-04T13:16:11.722Z,101610.01
2017-12-04T13:18:40.160Z,101620.34
2017-12-04T13:21:08.474Z,101616.64
2017-12-04T13:23:36.923Z,101615.83
2017-12-04T13:26:05.245Z,101631.33
2017-12-04T13:28:33.683Z,101636.16
2017-12-04T13:31:02.036Z,101634.19
2017-12-04T13:35:41.571Z,101635.72
2017-12-04T13:38:10.011Z,101639.23
2017-12-04T13:40:38.311Z,101639.61
2017-12-04T13:43:06.634Z,101651.03
2017-12-04T13:45:34.967Z,101643.53
2017-12-04T13:48:03.315Z,101651.58
2017-12-04T13:50:31.839Z,101649.95
2017-12-04T13:53:00.368Z,101652.79
2017-12-04T13:55:28.647Z,101662.87
2017-12-04T13:57:57.051Z,101664.89
2017-12-04T14:00:25.534Z,101671.11
2017-12-04T14:02:53.859Z,101675.38
2017-12-04T14:05:29.060Z,101673.72
2017-12-04T14:07:57.366Z,101678.16
2017-12-04T14:10:25.813Z,101674.30
2017-12-04T14:12:54.251Z,101684.86
2017-12-04T14:15:22.556Z,101680.55
2017-12-04T14:17:50.856Z,101688.55
2017-12-04T14:20:20.125Z,101695.86
2017-12-04T14:22:48.406Z,101690.19
2017-12-04T14:25:16.696Z,101693.60
2017-12-04T14:27:45.060Z,101694.27
2017-12-04T14:30:13.352Z,101694.59
2017-12-04T14:32:41.654Z,101693.77
2017-12-04T14:35:10.009Z,101698.61
2017-12-04T14:37:38.307Z,101704.59
2017-12-04T14:40:06.661Z,101708.73
2017-12-04T14:42:34.987Z,101710.83
2017-12-04T14:45:03.423Z,101714.08
2017-12-04T14:47:31.755Z,101722.03
2017-12-04T14:50:00.006Z,101725.58
2017-12-04T14:52:28.351Z,101733.90
2017-12-04T14:54:56.690Z,101738.05
2017-12-04T14:57:25.011Z,101741.02
2017-12-04T14:59:53.316Z,101736.77
2017-12-04T15:02:21.656Z,101736.88
2017-12-04T15:04:49.930Z,101748.83
2017-12-04T15:07:18.311Z,101748.50
2017-12-04T15:09:46.658Z,101752.57
2017-12-04T15:12:14.991Z,101760.73
2017-12-04T15:14:43.268Z,101758.80
2017-12-04T15:17:11.611Z,101761.78
2017-12-04T15:19:39.975Z,101773.61
2017-12-04T15:22:08.312Z,101769.34
2017-12-04T15:24:36.711Z,101775.92
2017-12-04T15:27:05.031Z,101775.92
2017-12-04T15:29:33.309Z,101782.96
2017-12-04T15:32:01.613Z,101779.88
2017-12-04T15:34:29.903Z,101784.54
2017-12-04T15:36:58.235Z,101790.43
2017-12-04T15:39:26.516Z,101791.08
2017-12-04T15:41:54.806Z,101789.84
2017-12-04T15:44:23.080Z,101791.08
2017-12-04T15:46:51.379Z,101796.83
2017-12-04T15:49:19.716Z,101796.19
2017-12-04T15:51:48.784Z,101803.08
2017-12-04T15:54:17.374Z,101811.84
2017-12-04T15:56:45.658Z,101810.37
2017-12-04T15:59:13.935Z,101811.91
2017-12-04T16:01:42.218Z,101817.17
2017-12-04T16:04:10.511Z,101816.17
2017-12-04T16:06:38.835Z,101821.73
2017-12-04T16:09:07.160Z,101820.84
2017-12-04T16:11:35.671Z,101819.63
2017-12-04T16:14:04.031Z,101822.89
2017-12-04T16:16:32.387Z,101828.96
2017-12-04T16:19:00.663Z,101831.19
2017-12-04T16:21:28.980Z,101834.06
2017-12-04T16:23:57.269Z,101838.00
2017-12-04T16:26:25.720Z,101833.25
2017-12-04T16:28:54.011Z,101844.23
2017-12-04T16:31:22.304Z,101842.03
2017-12-04T16:33:50.579Z,101844.88
2017-12-04T16:36:18.884Z,101854.70
2017-12-04T16:38:47.172Z,101854.31
2017-12-04T16:41:15.464Z,101858.23
2017-12-04T16:43:43.747Z,101859.94
2017-12-04T16:46:12.084Z,101862.50
2017-12-04T16:48:40.375Z,101869.54
2017-12-04T16:51:08.687Z,101874.12
2017-12-04T16:53:36.979Z,101874.20
2017-12-04T16:56:05.419Z,101879.84
2017-12-04T16:58:33.884Z,101885.09
2017-12-04T17:01:02.187Z,101894.02
2017-12-04T17:03:30.467Z,101887.91
2017-12-04T17:05:58.783Z,101895.31
2017-12-04T17:08:27.143Z,101901.03
2017-12-04T17:10:55.488Z,101896.55
2017-12-04T17:13:23.779Z,101902.95
2017-12-04T17:15:52.246Z,101907.56
2017-12-04T17:18:20.760Z,101917.63
2017-12-04T17:20:49.219Z,101924.92
2017-12-04T17:23:17.530Z,101931.23
2017-12-04T17:25:45.832Z,101926.01
2017-12-04T17:28:14.123Z,101924.77
2017-12-04T17:30:42.519Z,101933.77
2017-12-04T17:33:10.936Z,101933.69
2017-12-04T17:35:39.319Z,101936.62
2017-12-04T17:38:07.731Z,101939.00
2017-12-04T17:40:36.048Z,101944.01
2017-12-04T17:43:04.483Z,101946.16
2017-12-04T17:45:32.779Z,101945.23
2017-12-04T17:48:01.224Z,101945.40
2017-12-04T17:50:29.515Z,101960.34
2017-12-04T17:52:57.795Z,101953.84
2017-12-04T17:55:26.240Z,101957.95
2017-12-04T17:57:54.525Z,101956.39
2017-12-04T18:00:24.768Z,101962.45
2017-12-04T18:02:53.168Z,101958.81
2017-12-04T18:05:21.459Z,101966.70
2017-12-04T18:07:49.764Z,101967.56
2017-12-04T18:10:18.087Z,101971.51
2017-12-04T18:12:46.387Z,101973.63
2017-12-04T18:15:14.771Z,101974.78
2017-12-04T18:17:43.065Z,101984.11
2017-12-04T18:20:11.523Z,101982.56
2017-12-04T18:22:39.884Z,101982.22
2017-12-04T18:25:08.171Z,101976.52
2017-12-04T18:27:36.487Z,101974.95
2017-12-04T18:30:04.886Z,101968.87
2017-12-04T18:32:33.295Z,101980.78
2017-12-04T18:35:01.608Z,101980.93
2017-12-04T18:37:30.048Z,101982.00
2017-12-04T18:39:58.324Z,101985.39
2017-12-04T18:42:26.792Z,101975.90
2017-12-04T18:44:55.095Z,101982.52
2017-12-04T18:47:23.495Z,101981.65
2017-12-04T18:49:51.795Z,101982.45
2017-12-04T18:52:20.136Z,101984.35
2017-12-04T18:54:48.399Z,101982.39
2017-12-04T18:57:16.813Z,101980.67
2017-12-04T18:59:45.249Z,101981.16
2017-12-04T19:02:13.580Z,101991.89
2017-12-04T19:04:42.020Z,101996.33
2017-12-04T19:07:10.518Z,101987.55
2017-12-04T19:09:38.844Z,101995.08
2017-12-04T19:12:07.202Z,101999.58
2017-12-04T19:14:35.519Z,101999.59
2017-12-04T19:17:03.847Z,101997.78
2017-12-04T19:19:32.104Z,101996.65
2017-12-04T19:22:00.574Z,102001.14
2017-12-04T19:24:28.880Z,102000.10
2017-12-04T19:26:57.163Z,102008.28
2017-12-04T19:29:25.455Z,102006.63
2017-12-04T19:31:53.751Z,102008.75
2017-12-04T19:34:22.021Z,102009.39
2017-12-04T19:36:50.324Z,102006.22
2017-12-04T19:39:18.803Z,102017.91
2017-12-04T19:41:47.276Z,102012.75
2017-12-04T19:44:19.835Z,102018.89
2017-12-04T19:46:48.477Z,102013.73
2017-12-04T19:49:16.738Z,102013.89
2017-12-04T19:51:45.047Z,102015.38
2017-12-04T19:54:13.467Z,102017.76
2017-12-04T19:56:41.783Z,102015.95
2017-12-04T19:59:13.111Z,102012.25
2017-12-04T20:01:42.499Z,102017.50
2017-12-04T20:04:10.824Z,102011.59
2017-12-04T20:06:39.164Z,102019.72
2017-12-04T20:09:07.543Z,102026.43
2017-12-04T20:11:36.013Z,102028.87
2017-12-04T20:14:04.330Z,102033.70
2017-12-04T20:16:32.772Z,102033.45
2017-12-04T20:19:01.254Z,102033.80
2017-12-04T20:21:29.905Z,102037.22
2017-12-04T20:23:58.176Z,102040.77
2017-12-04T20:26:26.599Z,102042.16
2017-12-04T20:28:55.439Z,102040.83
2017-12-04T20:31:28.552Z,102044.19
2017-12-04T20:33:57.364Z,102050.89
2017-12-04T20:36:27.677Z,102042.70
2017-12-04T20:38:55.947Z,102049.66
2017-12-04T20:41:24.269Z,102057.44
2017-12-04T20:43:52.828Z,102062.19
2017-12-04T20:46:21.323Z,102060.06
2017-12-04T20:48:50.419Z,102054.75
2017-12-04T20:51:18.827Z,102062.69
2017-12-04T20:53:47.141Z,102061.30
2017-12-04T20:56:15.448Z,102060.12
2017-12-04T20:58:43.735Z,102058.16
2017-12-04T21:01:13.107Z,102064.86
2017-12-04T21:03:41.511Z,102065.69
2017-12-04T21:06:09.903Z,102067.27
2017-12-04T21:08:48.182Z,102064.95
2017-12-04T21:12:19.740Z,102067.65
2017-12-04T21:15:59.526Z,102070.42
2017-12-04T21:18:27.843Z,102072.16
2017-12-04T21:20:56.200Z,102075.02
2017-12-04T21:23:24.479Z,102075.93
2017-12-04T21:25:52.806Z,102077.95
2017-12-04T21:28:21.128Z,102077.13
2017-12-04T21:30:49.567Z,102082.95
2017-12-04T21:33:17.828Z,102085.27
2017-12-04T21:35:46.203Z,102091.95
2017-12-04T21:38:14.459Z,102089.58
2017-12-04T21:40:42.763Z,102088.19
2017-12-04T21:43:11.076Z,102094.80
2017-12-04T21:45:39.535Z,102096.69
2017-12-04T21:48:07.823Z,102094.63
2017-12-04T21:50:36.195Z,102096.84
2017-12-04T21:53:04.498Z,102096.48
2017-12-04T21:55:32.952Z,102100.23
2017-12-04T21:58:01.242Z,102097.84
2017-12-04T22:00:29.551Z,102105.37
2017-12-04T22:02:57.859Z,102108.55
2017-12-04T22:05:26.160Z,102103.55
2017-12-04T22:07:54.451Z,102108.99
2017-12-04T22:10:22.739Z,102103.59
2017-12-04T22:12:51.019Z,102108.42
2017-12-04T22:15:19.340Z,102110.07
2017-12-04T22:17:47.642Z,102108.17
2017-12-04T22:20:16.098Z,102100.23
2017-12-04T22:22:44.563Z,102107.76
2017-12-04T22:25:12.839Z,102112.22
2017-12-04T22:27:41.148Z,102109.48
2017-12-04T22:30:09.471Z,102106.91
2017-12-04T22:32:37.745Z,102113.10
2017-12-04T22:35:06.050Z,102107.63
2017-12-04T22:37:34.971Z,102113.28
2017-12-04T22:40:03.407Z,102109.70
2017-12-04T22:42:31.695Z,102110.20
2017-12-04T22:45:00.075Z,102114.94
2017-12-04T22:47:28.567Z,102119.00
2017-12-04T22:49:56.853Z,102120.32
2017-12-04T22:52:25.330Z,102116.72
2017-12-04T22:54:53.828Z,102122.89
2017-12-04T22:57:22.152Z,102124.70
2017-12-04T22:59:50.438Z,102123.88
2017-12-04T23:02:18.747Z,102127.04
2017-12-04T23:04:47.015Z,102126.94
2017-12-04T23:07:15.367Z,102129.64
2017-12-04T23:09:43.630Z,102132.31
2017-12-04T23:12:11.967Z,102131.91
2017-12-04T23:14:40.397Z,102134.38
2017-12-04T23:17:08.943Z,102130.81
2017-12-04T23:19:37.355Z,102126.42
2017-12-04T23:22:05.664Z,102122.19
2017-12-04T23:24:33.995Z,102126.85
2017-12-04T23:27:02.334Z,102130.09
2017-12-04T23:29:30.602Z,102123.25
2017-12-04T23:31:58.987Z,102131.59
2017-12-04T23:34:27.243Z,102130.70
2017-12-04T23:36:55.731Z,102132.13
2017-12-04T23:39:23.987Z,102127.02
2017-12-04T23:41:52.507Z,102132.53
2017-12-04T23:44:20.936Z,102130.58
2017-12-04T23:46:49.262Z,102138.84
2017-12-04T23:49:17.544Z,102136.06
2017-12-04T23:51:45.919Z,102135.86
2017-12-04T23:54:21.192Z,102132.11
2017-12-04T23:56:49.529Z,102138.53
2017-12-04T23:59:17.825Z,102139.25
